This is the latest recevied weather packets stored in our database for station/object VE6CWS-7. If no packets are shown the sender has not sent any weather packets the latest 10 day(s).
| Time | Temp. | Humidity | Pressure | Rain* | Wind** | Luminosity | Snow |
|---|---|---|---|---|---|---|---|
| 1777519831 | 9.44° C | 44% | 1023 hPa | 0 mm | - | - | - |
| 1777518931 | 10° C | 42% | 1022.8 hPa | 0 mm | - | - | - |
| 1777518091 | 10.56° C | 40% | 1022.7 hPa | 0 mm | - | - | - |
| 1777517149 | 11.11° C | 40% | 1022.5 hPa | 0 mm | - | - | - |
| 1777516256 | 11.67° C | 38% | 1022.4 hPa | 0 mm | - | - | - |
| 1777515348 | 12.22° C | 36% | 1022.3 hPa | 0 mm | - | - | - |
| 1777514508 | 12.78° C | 35% | 1022.2 hPa | 0 mm | - | - | - |
| 1777513542 | 13.89° C | 32% | 1022 hPa | 0 mm | - | - | - |
| 1777512643 | 13.89° C | 31% | 1021.9 hPa | 0 mm | - | - | - |
| 1777511802 | 14.44° C | 30% | 1022 hPa | 0 mm | - | - | - |
| 1777510901 | 14.44° C | 29% | 1022 hPa | 0 mm | - | - | - |
| 1777509939 | 14.44° C | 30% | 1022 hPa | 0 mm | - | - | - |
| 1777509042 | 15° C | 30% | 1021.9 hPa | 0 mm | - | - | - |
| 1777508137 | 15° C | 30% | 1022 hPa | 0 mm | - | - | - |
| 1777507295 | 15° C | 31% | 1021.9 hPa | 0 mm | - | - | - |
| 1777506335 | 15° C | 29% | 1022 hPa | 0 mm | - | - | - |
| 1777505434 | 15° C | 29% | 1022 hPa | 0 mm | - | - | - |
| 1777504532 | 15° C | 30% | 1022.1 hPa | 0 mm | - | - | - |
| 1777503691 | 15° C | 29% | 1022.1 hPa | 0 mm | - | - | - |
| 1777502762 | 14.44° C | 30% | 1022.2 hPa | 0 mm | - | - | - |
| 1777501850 | 13.89° C | 30% | 1022.2 hPa | 0 mm | - | - | - |
| 1777500941 | 15° C | 29% | 1022.2 hPa | 0 mm | - | - | - |
| 1777500101 | 15° C | 29% | 1022.1 hPa | 0 mm | - | - | - |
| 1777499148 | 15° C | 29% | 1022.3 hPa | 0 mm | - | - | - |
| 1777498238 | 15° C | 28% | 1022.2 hPa | 0 mm | - | - | - |
* Rain latest hour (hover to see other rain measurements)
** Current wind speed in m/s (hover to see current wind gust speed)